Latest Weather Observations for Leonora Airport

IDW60801

Issued at 3:03 pm WST Tuesday 26 September 2017 (issued every 30 minutes, with the page automatically refreshed every 10 minutes)

About weather observations | Map of weather stations | Latest weather observations for WA | Other Formats
Station Details ID: 012241 Name: LEONORA AERO Lat: -28.88 Lon: 121.32 Height: 370.0 m
Data from the previous 72 hours. | See also: Recent months at Leonora Airport
Date/Time
WST
Temp
°C
App
Temp
°C
Dew
Point
°C
Rel
Hum
%
Delta-T
°C
Wind Press
QNH
hPa
Press
MSL
hPa
Rain since
9am
mm
Dir  Spd
km/h
Gust
km/h
Spd
kts
Gust
kts
26/03:00pm 21.3 12.6 -3.2 19 10.5 WNW 33 57 18 31 1009.5 1008.6 0.0
26/02:30pm 21.2 11.2 -4.8 17 10.8 WNW 39 63 21 34 1009.6 1008.7 0.0
26/02:24pm 21.4 11.4 -4.6 17 10.8 WNW 39 63 21 34 1009.5 1008.6 0.0
26/02:00pm 20.9 10.5 -5.0 17 10.7 WNW 41 57 22 31 1009.8 1008.8 0.0
26/01:37pm 20.4 11.3 -4.0 19 10.2 W 35 54 19 29 1009.6 1008.7 0.0
26/01:30pm 20.3 10.3 -4.8 18 10.3 WNW 39 54 21 29 1009.8 1008.8 0.0
26/01:09pm 20.1 10.8 -2.3 22 9.6 WNW 37 56 20 30 1009.8 1008.8 0.0
26/01:00pm 20.5 11.2 -1.9 22 9.8 WNW 37 54 20 29 1010.0 1009.0 0.0
26/12:39pm 19.7 10.5 -1.4 24 9.2 W 37 56 20 30 1010.1 1009.1 0.0
26/12:30pm 19.2 10.0 -1.3 25 8.9 W 37 50 20 27 1010.2 1009.2 0.0
26/12:00pm 19.4 10.4 -0.1 27 8.7 WNW 37 50 20 27 1010.3 1009.3 0.0
26/11:36am 18.7 10.5 0.3 29 8.3 WNW 33 52 18 28 1010.6 1009.7 0.0
26/11:30am 18.6 10.5 0.7 30 8.1 WNW 33 50 18 27 1010.7 1009.8 0.0
26/11:15am 18.3 10.3 0.4 30 8.0 WNW 32 56 17 30 1010.8 1009.9 0.0
26/11:00am 18.7 10.8 0.8 30 8.1 WNW 32 48 17 26 1010.9 1010.0 0.0
26/10:35am 17.7 9.2 1.2 33 7.5 WNW 35 54 19 29 1011.0 1010.1 0.0
26/10:30am 18.2 9.9 2.1 34 7.5 WNW 35 46 19 25 1011.1 1010.2 0.0
26/10:07am 17.0 9.2 2.6 38 6.7 WNW 33 52 18 28 1011.1 1010.2 0.0
26/10:00am 17.1 9.5 3.1 39 6.6 WNW 32 48 17 26 1011.1 1010.2 0.0
26/09:30am 15.6 8.0 3.1 43 5.8 WNW 32 43 17 23 1011.0 1010.1 0.0
26/09:02am 15.7 8.2 3.5 44 5.7 WNW 32 50 17 27 1011.0 1010.1 0.0
26/09:00am 15.3 7.5 3.1 44 5.6 WNW 33 50 18 27 1011.0 1010.1 0.6
26/08:30am 14.6 6.5 3.1 46 5.3 WNW 35 44 19 24 1010.9 1010.0 0.6
26/08:00am 13.7 6.4 4.3 53 4.4 WNW 32 43 17 23 1010.8 1009.9 0.6
26/07:30am 13.1 7.6 5.8 61 3.5 WNW 24 35 13 19 1010.7 1009.8 0.6
26/07:00am 12.0 7.3 6.1 67 2.8 WNW 20 30 11 16 1010.3 1009.3 0.6
26/06:30am 11.1 6.5 5.6 69 2.6 WNW 19 24 10 13 1009.8 1008.8 0.6
26/06:00am 10.3 6.4 5.3 71 2.3 WNW 15 20 8 11 1009.4 1008.5 0.6
26/05:30am 10.3 6.0 5.1 70 2.4 NW 17 20 9 11 1009.0 1008.1 0.6
26/05:00am 10.5 6.9 5.1 69 2.5 NW 13 17 7 9 1008.7 1007.8 0.6
26/04:30am 11.0 6.6 4.9 66 2.8 WNW 17 22 9 12 1008.4 1007.5 0.6
26/04:00am 11.2 7.2 4.9 65 2.9 WNW 15 20 8 11 1008.1 1007.1 0.6
26/03:30am 11.4 7.3 4.6 63 3.1 WNW 15 20 8 11 1007.9 1006.9 0.6
26/03:00am 11.9 7.8 4.6 61 3.4 WNW 15 20 8 11 1007.8 1006.8 0.6
26/02:30am 12.5 8.1 4.7 59 3.6 NW 17 24 9 13 1007.9 1006.9 0.6
26/02:00am 12.7 8.2 4.4 57 3.9 NW 17 22 9 12 1008.1 1007.1 0.6
26/01:30am 12.9 8.4 4.3 56 4.0 NW 17 26 9 14 1008.3 1007.4 0.6
26/01:00am 12.6 8.5 4.3 57 3.9 NW 15 17 8 9 1008.3 1007.4 0.6
26/12:30am 13.4 9.0 4.6 55 4.1 NW 17 26 9 14 1008.3 1007.4 0.6
26/12:00am 12.6 9.0 4.8 59 3.7 NW 13 17 7 9 1008.4 1007.5 0.6
 
Date/Time
WST
Temp
°C
App
Temp
°C
Dew
Point
°C
Rel
Hum
%
Delta-T
°C
Wind Press
QNH
hPa
Press
MSL
hPa
Rain since
9am
mm
Dir  Spd
km/h
Gust
km/h
Spd
kts
Gust
kts
25/11:30pm 12.8 9.2 4.8 58 3.8 NNW 13 17 7 9 1008.5 1007.6 0.6
25/11:00pm 12.4 9.5 4.6 59 3.6 NW 9 11 5 6 1008.5 1007.6 0.6
25/10:30pm 12.7 10.1 4.4 57 3.9 NW 7 11 4 6 1008.7 1007.8 0.6
25/10:00pm 13.5 10.2 4.6 55 4.2 NNW 11 13 6 7 1008.9 1008.0 0.6
25/09:30pm 14.2 10.9 4.8 53 4.5 WNW 11 17 6 9 1009.0 1008.1 0.6
25/09:00pm 14.9 10.9 4.9 51 4.8 WNW 15 20 8 11 1009.0 1008.1 0.6
25/08:30pm 15.3 10.2 4.1 47 5.3 WNW 20 28 11 15 1009.0 1008.1 0.6
25/08:00pm 15.9 10.9 3.4 43 5.9 WNW 19 24 10 13 1008.7 1007.8 0.6
25/07:30pm 16.1 10.6 3.9 44 5.8 W 22 30 12 16 1008.4 1007.5 0.6
25/07:00pm 18.1 12.7 1.2 32 7.7 WNW 19 30 10 16 1007.8 1006.8 0.6
25/06:30pm 18.4 12.9 0.5 30 8.0 WNW 19 26 10 14 1007.2 1006.2 0.6
25/06:00pm 18.7 13.0 0.8 30 8.1 NW 20 32 11 17 1006.7 1005.8 0.6
25/05:30pm 19.2 11.6 0.8 29 8.4 WNW 30 39 16 21 1006.4 1005.5 0.6
25/05:11pm 19.8 11.6 0.3 27 8.8 NW 33 52 18 28 1006.1 1005.2 0.6
25/05:00pm 20.0 11.4 0.5 27 8.9 NW 35 46 19 25 1006.1 1005.2 0.6
25/04:53pm 19.7 12.6 1.2 29 8.5 NW 28 46 15 25 1006.0 1005.1 0.6
25/04:30pm 19.1 14.1 4.5 38 7.1 NNW 20 30 11 16 1006.0 1005.1 0.6
25/04:00pm 19.1 12.2 4.5 38 7.2 NW 30 41 16 22 1006.1 1005.2 0.6
25/03:30pm 18.9 13.4 6.1 43 6.5 NW 24 33 13 18 1006.1 1005.2 0.6
25/03:05pm 17.5 11.9 8.6 56 4.7 NW 28 46 15 25 1006.0 1005.1 0.6
25/03:00pm 16.4 9.3 7.9 57 4.4 NW 35 48 19 26 1006.1 1005.2 0.6
25/02:42pm 19.2 13.0 4.2 37 7.3 NW 26 54 14 29 1005.7 1004.7 0.6
25/02:30pm 19.4 14.1 6.8 44 6.5 W 24 33 13 18 1005.7 1004.7 0.6
25/02:08pm 18.7 12.7 7.2 47 5.9 W 28 46 15 25 1006.0 1005.1 0.6
25/02:00pm 19.3 11.6 5.4 40 7.0 NW 35 44 19 24 1006.0 1005.1 0.6
25/01:30pm 19.1 11.2 4.5 38 7.1 NNW 35 56 19 30 1006.2 1005.3 0.6
25/01:02pm 19.0 12.6 7.1 46 6.1 NW 30 48 16 26 1006.5 1005.6 0.6
25/01:00pm 18.3 11.4 6.5 46 6.0 NW 32 48 17 26 1006.6 1005.7 0.6
25/12:37pm 17.7 11.4 7.2 50 5.4 NW 30 54 16 29 1007.2 1006.2 0.6
25/12:30pm 17.5 10.8 7.5 52 5.1 WNW 32 43 17 23 1007.2 1006.2 0.6
25/12:00pm 17.3 11.9 9.5 60 4.2 WNW 28 44 15 24 1007.4 1006.4 0.6
25/11:30am 14.8 9.7 11.9 83 1.6 W 30 37 16 20 1008.0 1007.0 0.6
25/11:29am 15.2 10.5 13.1 87 1.2 W 30 44 16 24 1008.0 1007.0 0.6
25/11:18am 13.9 6.5 11.1 83 1.5 WNW 41 65 22 35 1008.3 1007.4 0.4
25/11:08am 18.0 11.7 5.9 45 6.0 NW 28 67 15 36 1007.7 1006.7 0.0
25/11:06am 18.5 12.2 5.7 43 6.4 NW 28 48 15 26 1007.6 1006.6 0.0
25/11:00am 18.1 12.2 6.0 45 6.1 NW 26 39 14 21 1007.5 1006.5 0.0
25/10:30am 17.5 11.3 6.1 47 5.7 NW 28 44 15 24 1008.1 1007.1 0.0
25/10:00am 17.6 11.3 5.5 45 6.0 NW 28 46 15 25 1008.4 1007.5 0.0
25/09:52am 17.4 11.1 5.7 46 5.8 WNW 28 46 15 25 1008.3 1007.4 0.0
25/09:30am 17.5 11.7 6.1 47 5.7 NW 26 43 14 23 1008.6 1007.7 0.0
25/09:00am 16.1 10.2 6.0 51 5.0 WNW 26 37 14 20 1008.8 1007.9 0.0
25/08:30am 15.8 10.4 6.3 53 4.7 WNW 24 33 13 18 1008.8 1007.9 0.0
25/08:00am 14.7 10.0 7.7 63 3.6 NW 22 30 12 16 1008.8 1007.9 0.0
25/07:30am 13.7 10.9 8.5 71 2.7 NNW 13 17 7 9 1008.6 1007.7 0.0
25/07:00am 13.0 10.5 8.3 73 2.4 NW 11 15 6 8 1008.6 1007.7 0.0
25/06:30am 11.8 9.8 8.5 80 1.7 WNW 9 11 5 6 1008.4 1007.5 0.0
25/06:00am 11.5 9.4 8.2 80 1.7 WSW 9 11 5 6 1008.0 1007.0 0.0
25/05:30am 11.8 9.6 7.9 77 1.9 WSW 9 15 5 8 1008.1 1007.1 0.0
25/05:00am 12.1 8.4 6.4 68 2.8 W 15 17 8 9 1008.3 1007.4 0.0
25/04:30am 11.2 8.4 5.1 66 2.8 NW 9 13 5 7 1007.8 1006.8 0.0
25/04:00am 11.4 9.2 5.5 67 2.8 W 6 7 3 4 1007.2 1006.2 0.0
25/03:30am 12.0 8.9 5.4 64 3.1 W 11 15 6 8 1007.3 1006.3 0.0
25/03:00am 12.6 8.2 4.6 58 3.7 W 17 20 9 11 1007.3 1006.3 0.0
25/02:30am 13.0 9.5 3.4 52 4.4 W 11 17 6 9 1007.2 1006.2 0.0
25/02:00am 13.0 9.7 2.3 48 4.8 NW 9 11 5 6 1006.5 1005.6 0.0
25/01:30am 14.1 10.0 2.4 45 5.3 WNW 13 17 7 9 1006.9 1005.9 0.0
25/01:00am 14.9 11.0 1.1 39 6.1 NW 11 13 6 7 1006.7 1005.8 0.0
25/12:30am 15.7 11.4 0.7 36 6.6 WNW 13 19 7 10 1006.9 1005.9 0.0
25/12:00am 16.6 12.3 1.1 35 7.0 NNW 13 15 7 8 1006.6 1005.7 0.0
 
Date/Time
WST
Temp
°C
App
Temp
°C
Dew
Point
°C
Rel
Hum
%
Delta-T
°C
Wind Press
QNH
hPa
Press
MSL
hPa
Rain since
9am
mm
Dir  Spd
km/h
Gust
km/h
Spd
kts
Gust
kts
24/11:30pm 16.3 12.3 0.4 34 7.0 NNW 11 15 6 8 1006.9 1005.9 0.0
24/11:00pm 15.3 12.0 0.3 36 6.6 NW 7 15 4 8 1007.0 1006.0 0.0
24/10:30pm 16.3 12.3 0.4 34 7.0 N 11 15 6 8 1007.0 1006.0 0.0
24/10:00pm 16.0 12.5 1.0 36 6.7 NNE 9 11 5 6 1007.3 1006.3 0.0
24/09:30pm 15.4 13.0 1.9 40 6.1 NE 4 6 2 3 1007.6 1006.6 0.0
24/09:00pm 15.1 13.0 1.6 40 6.1 NNE 2 7 1 4 1007.6 1006.6 0.0
24/08:30pm 15.7 13.9 1.1 37 6.5 CALM 0 0 0 0 1007.7 1006.7 0.0
24/08:00pm 16.0 14.1 0.6 35 6.8 CALM 0 0 0 0 1007.6 1006.6 0.0
24/07:30pm 16.9 14.6 0.1 32 7.4 NW 2 7 1 4 1007.4 1006.4 0.0
24/07:00pm 18.1 14.9 -0.2 29 8.1 NW 6 9 3 5 1007.2 1006.2 0.0
24/06:30pm 19.6 15.9 0.1 27 8.8 WNW 9 15 5 8 1007.1 1006.1 0.0
24/06:00pm 20.6 16.6 0.4 26 9.2 WNW 11 15 6 8 1007.0 1006.0 0.0
24/05:30pm 21.0 15.8 0.2 25 9.5 NNW 17 24 9 13 1006.9 1005.9 0.0
24/05:00pm 21.5 16.4 0.7 25 9.6 NW 17 26 9 14 1006.9 1005.9 0.0
24/04:30pm 21.2 15.7 0.4 25 9.5 WNW 19 28 10 15 1006.9 1005.9 0.0
24/04:00pm 21.6 15.5 0.2 24 9.8 W 22 43 12 23 1006.9 1005.9 0.0
24/03:30pm 21.9 15.5 1.0 25 9.8 W 24 33 13 18 1006.7 1005.8 0.0
24/03:11pm 21.4 14.6 0.6 25 9.6 W 26 43 14 23 1006.7 1005.8 0.0
24/03:00pm 21.3 15.3 1.0 26 9.5 NNW 22 33 12 18 1006.9 1005.9 0.0
24/02:30pm 22.5 17.0 2.1 26 9.8 NW 20 30 11 16 1007.2 1006.2 0.0
24/02:11pm 21.8 14.9 2.5 28 9.3 WNW 28 46 15 25 1007.5 1006.5 0.0
24/02:00pm 21.2 15.1 3.0 30 8.8 NW 24 32 13 17 1007.5 1006.5 0.0
24/01:30pm 21.2 15.7 3.9 32 8.5 WNW 22 32 12 17 1008.1 1007.1 0.0
24/01:00pm 20.2 13.5 3.4 33 8.1 WNW 28 39 15 21 1008.6 1007.7 0.0
24/12:35pm 20.4 13.7 3.6 33 8.2 W 28 46 15 25 1008.9 1008.0 0.0
24/12:30pm 20.0 12.9 3.3 33 8.0 WNW 30 41 16 22 1009.0 1008.1 0.0
24/12:00pm 20.2 14.7 3.9 34 8.0 WNW 22 32 12 17 1009.4 1008.5 0.0
24/11:30am 19.5 14.6 4.0 36 7.5 W 19 35 10 19 1009.9 1008.9 0.0
24/11:00am 18.1 15.3 5.0 42 6.4 SW 9 17 5 9 1010.2 1009.2 0.0
24/10:30am 16.6 13.9 5.6 48 5.4 WNW 9 19 5 10 1010.7 1009.8 0.0
24/10:00am 15.0 9.3 6.6 57 4.2 W 26 43 14 23 1011.6 1010.7 0.0
24/09:30am 17.6 13.1 5.9 46 5.8 SW 19 28 10 15 1011.4 1010.5 0.0
24/09:00am 16.9 11.7 5.5 47 5.6 WSW 22 32 12 17 1011.4 1010.5 0.0
24/08:30am 16.4 11.4 4.4 45 5.7 SW 20 32 11 17 1011.4 1010.5 0.0
24/08:00am 16.5 11.9 3.6 42 6.1 WSW 17 22 9 12 1011.1 1010.2 0.0
24/07:30am 14.8 11.4 4.2 49 5.0 WSW 11 15 6 8 1010.7 1009.8 0.0
24/07:00am 14.7 12.2 3.8 48 5.1 NNW 6 17 3 9 1010.4 1009.4 0.0
24/06:30am 13.4 12.0 3.5 51 4.5 CALM 0 0 0 0 1009.8 1008.8 0.0
24/06:00am 12.9 11.6 4.1 55 4.1 CALM 0 0 0 0 1010.0 1009.0 0.0
24/05:30am 13.1 11.7 3.5 52 4.4 CALM 0 0 0 0 1009.9 1008.9 0.0
24/05:00am 14.0 11.5 3.5 49 4.9 SW 6 7 3 4 1009.8 1008.8 0.0
24/04:30am 14.4 12.2 3.2 47 5.1 WSW 4 7 2 4 1009.8 1008.8 0.0
24/04:00am 14.5 13.1 3.3 47 5.2 CALM 0 0 0 0 1009.6 1008.7 0.0
24/03:30am 14.7 13.2 3.2 46 5.3 CALM 0 0 0 0 1009.5 1008.6 0.0
24/03:00am 14.9 13.4 2.8 44 5.5 CALM 0 0 0 0 1009.6 1008.7 0.0
24/02:30am 15.2 13.7 3.0 44 5.6 CALM 0 0 0 0 1010.0 1009.0 0.0
24/02:00am 15.2 13.7 3.0 44 5.6 CALM 0 0 0 0 1010.2 1009.2 0.0
24/01:30am 15.4 13.8 2.6 42 5.9 CALM 0 0 0 0 1010.3 1009.3 0.0
24/01:00am 16.1 13.4 2.5 40 6.3 SSW 6 7 3 4 1010.7 1009.8 0.0
24/12:30am 16.6 13.9 2.6 39 6.5 SSW 6 11 3 6 1010.9 1010.0 0.0
24/12:00am 16.6 15.1 3.0 40 6.3 CALM 0 0 0 0 1011.2 1010.3 0.0
 
Date/Time
WST
Temp
°C
App
Temp
°C
Dew
Point
°C
Rel
Hum
%
Delta-T
°C
Wind Press
QNH
hPa
Press
MSL
hPa
Rain since
9am
mm
Dir  Spd
km/h
Gust
km/h
Spd
kts
Gust
kts
23/11:30pm 16.9 14.6 2.9 39 6.5 SW 4 7 2 4 1011.3 1010.4 0.0
23/11:00pm 17.1 14.2 2.7 38 6.7 SW 7 7 4 4 1011.5 1010.6 0.0
23/10:30pm 17.4 14.7 2.6 37 6.9 W 6 9 3 5 1011.8 1010.9 0.0
23/10:00pm 17.5 14.7 2.3 36 7.0 SW 6 7 3 4 1012.1 1011.2 0.0
23/09:30pm 17.7 15.0 2.5 36 7.1 SSW 6 7 3 4 1012.4 1011.5 0.0
23/09:00pm 17.9 15.2 2.6 36 7.1 SW 6 9 3 5 1012.8 1011.8 0.0
23/08:30pm 18.1 15.7 2.4 35 7.3 SW 4 9 2 5 1012.7 1011.7 0.0
23/08:00pm 18.3 15.4 2.6 35 7.4 SW 7 9 4 5 1012.7 1011.7 0.0
23/07:30pm 18.2 15.4 2.9 36 7.2 WSW 7 9 4 5 1012.4 1011.5 0.0
23/07:00pm 18.4 15.1 2.7 35 7.4 WSW 9 11 5 6 1012.1 1011.2 0.0
23/06:30pm 18.4 14.8 3.1 36 7.2 W 11 13 6 7 1011.9 1011.0 0.0
23/06:00pm 19.2 15.6 3.0 34 7.7 WSW 11 17 6 9 1011.6 1010.7 0.0
23/05:30pm 19.9 14.1 2.3 31 8.3 W 22 28 12 15 1011.4 1010.5 0.0
23/05:00pm 20.4 14.3 2.7 31 8.4 W 24 35 13 19 1011.4 1010.5 0.0
23/04:30pm 20.9 15.2 2.7 30 8.7 W 22 32 12 17 1011.3 1010.4 0.0
23/04:00pm 20.4 13.8 2.3 30 8.6 W 26 35 14 19 1011.2 1010.3 0.0
23/03:30pm 21.3 14.7 2.1 28 9.1 W 26 52 14 28 1011.1 1010.2 0.0

Other Formats:

Comma delimited format used in spreadsheet applications
http://www.bom.gov.au/fwo/IDW60801/IDW60801.94450.axf

JavaScript Object Notation format (JSON) in row-major order
http://www.bom.gov.au/fwo/IDW60801/IDW60801.94450.json